createdAt,value
2024-04-30T00:00:01.643Z,100.00
2024-04-30T00:01:14.324Z,100.00
2024-04-30T00:02:18.670Z,100.00
2024-04-30T00:04:27.986Z,100.00
2024-04-30T00:05:48.120Z,100.00
2024-04-30T00:06:56.940Z,100.00
2024-04-30T00:08:04.089Z,100.00
2024-04-30T00:09:07.108Z,100.00
2024-04-30T00:10:15.170Z,100.00
2024-04-30T00:11:20.562Z,100.00
2024-04-30T00:12:24.699Z,100.00
2024-04-30T00:13:29.106Z,100.00
2024-04-30T00:14:42.229Z,100.00
2024-04-30T00:15:45.313Z,100.00
2024-04-30T00:16:47.625Z,100.00
2024-04-30T00:17:51.656Z,100.00
2024-04-30T00:18:59.391Z,100.00
2024-04-30T00:20:05.130Z,100.00
2024-04-30T00:21:12.422Z,100.00
2024-04-30T00:22:16.995Z,100.00
2024-04-30T00:23:21.080Z,100.00
2024-04-30T00:24:25.981Z,100.00
2024-04-30T00:25:31.282Z,100.00
2024-04-30T00:26:37.834Z,100.00
2024-04-30T00:27:42.684Z,100.00
2024-04-30T00:28:50.949Z,100.00
2024-04-30T00:29:53.740Z,100.00
2024-04-30T00:30:57.637Z,100.00
2024-04-30T00:32:00.750Z,100.00
2024-04-30T00:33:04.458Z,100.00
2024-04-30T00:34:11.144Z,100.00
2024-04-30T00:35:13.922Z,100.00
2024-04-30T00:36:16.834Z,100.00
2024-04-30T00:37:19.924Z,100.00
2024-04-30T00:38:24.770Z,100.00
2024-04-30T00:39:28.112Z,100.00
2024-04-30T00:40:31.704Z,100.00
2024-04-30T00:43:04.317Z,100.00
2024-04-30T00:44:16.259Z,100.00
2024-04-30T00:45:22.489Z,100.00
2024-04-30T00:46:29.484Z,100.00
2024-04-30T00:48:09.518Z,100.00
2024-04-30T00:49:17.332Z,100.00
2024-04-30T00:50:20.662Z,100.00
2024-04-30T00:51:24.619Z,100.00
2024-04-30T00:52:28.461Z,100.00
2024-04-30T00:53:36.745Z,100.00
2024-04-30T00:54:40.490Z,100.00
2024-04-30T00:55:44.313Z,100.00
2024-04-30T00:56:47.208Z,100.00
2024-04-30T00:57:52.029Z,100.00
2024-04-30T00:58:57.540Z,100.00
2024-04-30T01:00:01.402Z,100.00
2024-04-30T01:01:05.336Z,100.00
2024-04-30T01:02:09.223Z,100.00
2024-04-30T01:03:11.717Z,100.00
2024-04-30T01:04:14.715Z,100.00
2024-04-30T01:05:20.255Z,100.00
2024-04-30T01:06:22.550Z,100.00
2024-04-30T01:07:26.669Z,100.00
2024-04-30T01:08:33.993Z,100.00
2024-04-30T01:09:37.512Z,100.00
2024-04-30T01:10:44.490Z,100.00
2024-04-30T01:11:48.961Z,100.00
2024-04-30T01:12:53.698Z,100.00
2024-04-30T01:13:57.110Z,100.00
2024-04-30T01:15:02.244Z,100.00
2024-04-30T01:16:06.838Z,100.00
2024-04-30T01:17:10.434Z,100.00
2024-04-30T01:18:15.087Z,100.00
2024-04-30T01:19:18.525Z,100.00
2024-04-30T01:20:23.895Z,100.00
2024-04-30T01:21:28.139Z,100.00
2024-04-30T01:22:51.373Z,100.00
2024-04-30T01:23:55.811Z,100.00
2024-04-30T01:24:59.114Z,100.00
2024-04-30T01:26:01.732Z,100.00
2024-04-30T01:27:16.188Z,100.00
2024-04-30T01:28:20.457Z,100.00
2024-04-30T01:29:24.299Z,100.00
2024-04-30T01:30:32.756Z,100.00
2024-04-30T01:31:36.415Z,100.00
2024-04-30T01:32:39.557Z,100.00
2024-04-30T01:33:45.146Z,100.00
2024-04-30T01:35:00.682Z,100.00
2024-04-30T01:36:06.428Z,100.00
2024-04-30T01:37:17.241Z,100.00
2024-04-30T01:38:22.893Z,100.00
2024-04-30T01:39:26.561Z,100.00
2024-04-30T01:40:30.362Z,100.00
2024-04-30T01:41:34.364Z,100.00
2024-04-30T01:42:39.278Z,100.00
2024-04-30T01:43:43.932Z,100.00
2024-04-30T01:44:51.950Z,100.00
2024-04-30T01:46:00.305Z,100.00
2024-04-30T01:47:07.547Z,100.00
2024-04-30T01:48:11.031Z,100.00
2024-04-30T01:49:22.321Z,100.00
2024-04-30T01:50:27.005Z,100.00
2024-04-30T01:51:32.756Z,100.00
2024-04-30T01:52:40.668Z,100.00
2024-04-30T01:53:54.186Z,100.00
2024-04-30T01:55:21.533Z,100.00
2024-04-30T01:56:26.997Z,100.00
2024-04-30T01:57:48.714Z,100.00
2024-04-30T01:58:54.954Z,100.00
2024-04-30T02:00:01.058Z,100.00
2024-04-30T02:01:20.600Z,100.00
2024-04-30T02:02:26.948Z,100.00
2024-04-30T02:03:34.644Z,100.00
2024-04-30T02:04:46.423Z,100.00
2024-04-30T02:05:52.629Z,100.00
2024-04-30T02:06:58.998Z,100.00
2024-04-30T02:08:05.092Z,100.00
2024-04-30T02:09:11.201Z,100.00
2024-04-30T02:10:18.062Z,100.00
2024-04-30T02:11:46.716Z,100.00
2024-04-30T02:12:51.179Z,100.00
2024-04-30T02:13:57.641Z,100.00
2024-04-30T02:15:05.589Z,100.00
2024-04-30T02:16:11.569Z,100.00
2024-04-30T02:17:14.023Z,100.00
2024-04-30T02:18:17.169Z,100.00
2024-04-30T02:19:40.149Z,100.00
2024-04-30T02:20:45.257Z,100.00
2024-04-30T02:21:47.723Z,100.00
2024-04-30T02:22:50.239Z,100.00
2024-04-30T02:23:52.617Z,100.00
2024-04-30T02:24:54.982Z,100.00
2024-04-30T02:26:02.730Z,100.00
2024-04-30T02:27:07.124Z,100.00
2024-04-30T02:28:09.981Z,100.00
2024-04-30T02:29:13.097Z,100.00
2024-04-30T02:30:36.121Z,100.00
2024-04-30T02:32:00.114Z,100.00
2024-04-30T02:33:21.348Z,100.00
2024-04-30T02:34:30.246Z,100.00
2024-04-30T02:35:34.449Z,100.00
2024-04-30T02:36:37.372Z,100.00
2024-04-30T02:37:40.439Z,100.00
2024-04-30T02:38:46.551Z,100.00
2024-04-30T02:39:51.323Z,100.00
2024-04-30T02:40:54.861Z,100.00
2024-04-30T02:42:06.461Z,100.00
2024-04-30T02:43:10.081Z,100.00
2024-04-30T02:44:29.776Z,100.00
2024-04-30T02:45:33.169Z,100.00
2024-04-30T02:46:43.781Z,100.00
2024-04-30T02:47:55.332Z,100.00
2024-04-30T02:49:03.743Z,93.87
2024-04-30T02:50:09.892Z,97.29
2024-04-30T02:51:12.698Z,95.74
2024-04-30T02:52:15.847Z,93.49
2024-04-30T02:53:43.684Z,89.21
2024-04-30T02:54:48.072Z,83.86
2024-04-30T02:55:51.480Z,80.91
2024-04-30T02:56:54.095Z,79.28
2024-04-30T02:58:03.408Z,58.96
2024-04-30T02:59:09.178Z,61.42
2024-04-30T03:00:12.163Z,74.40
2024-04-30T03:01:15.286Z,68.72
2024-04-30T03:02:21.046Z,71.91
2024-04-30T03:03:24.624Z,81.89
2024-04-30T03:04:27.952Z,83.40
2024-04-30T03:05:31.202Z,85.20
2024-04-30T03:06:39.052Z,89.13
2024-04-30T03:07:42.685Z,94.44
2024-04-30T03:08:46.141Z,78.32
2024-04-30T03:09:49.084Z,97.55
2024-04-30T03:11:02.001Z,99.71
2024-04-30T03:12:10.046Z,100.00
2024-04-30T03:13:17.126Z,99.20
2024-04-30T03:14:25.968Z,100.00
2024-04-30T03:15:35.011Z,100.00
2024-04-30T03:18:15.483Z,100.00
2024-04-30T03:19:22.283Z,100.00
2024-04-30T03:20:27.727Z,100.00
2024-04-30T03:21:37.211Z,100.00
2024-04-30T03:22:43.980Z,96.15
2024-04-30T03:23:48.269Z,100.00
2024-04-30T03:24:52.307Z,100.00
2024-04-30T03:25:56.381Z,98.58
2024-04-30T03:27:04.433Z,100.00
2024-04-30T03:28:14.203Z,83.96
2024-04-30T03:29:17.271Z,100.00
2024-04-30T03:30:31.678Z,85.04
2024-04-30T03:31:44.760Z,84.47
2024-04-30T03:32:53.512Z,77.86
2024-04-30T03:33:59.600Z,78.64
2024-04-30T03:35:03.231Z,75.23
2024-04-30T03:36:06.977Z,72.79
2024-04-30T03:37:12.015Z,71.38
2024-04-30T03:38:16.002Z,73.44
2024-04-30T03:39:18.875Z,74.00
2024-04-30T03:40:24.333Z,70.58
2024-04-30T03:41:30.939Z,70.63
2024-04-30T03:42:33.218Z,69.17
2024-04-30T03:43:39.511Z,66.93
2024-04-30T03:44:45.826Z,69.54
2024-04-30T03:45:50.834Z,67.11
2024-04-30T03:46:55.202Z,65.07
2024-04-30T03:48:11.414Z,64.16
2024-04-30T03:49:15.147Z,62.14
2024-04-30T03:50:18.914Z,64.72
2024-04-30T03:51:21.954Z,64.55
2024-04-30T03:52:24.855Z,63.64
2024-04-30T03:53:29.182Z,60.60
2024-04-30T03:54:35.335Z,55.35
2024-04-30T03:55:38.064Z,51.19
2024-04-30T03:56:43.399Z,48.20
2024-04-30T03:57:50.361Z,46.06
2024-04-30T03:58:52.666Z,43.43
2024-04-30T03:59:56.282Z,41.05
2024-04-30T04:01:00.611Z,38.23
2024-04-30T04:02:03.323Z,36.95
2024-04-30T04:03:07.392Z,36.28
2024-04-30T04:04:10.139Z,34.77
2024-04-30T04:05:12.556Z,33.82
2024-04-30T04:06:17.614Z,33.31
2024-04-30T04:07:20.425Z,32.45
2024-04-30T04:08:22.713Z,32.62
2024-04-30T04:09:25.309Z,31.54
2024-04-30T04:10:27.582Z,31.36
2024-04-30T04:11:48.665Z,30.69
2024-04-30T04:13:09.589Z,30.93
2024-04-30T04:14:30.720Z,31.05
2024-04-30T04:15:34.026Z,29.46
2024-04-30T04:16:36.188Z,29.70
2024-04-30T04:17:38.660Z,29.08
2024-04-30T04:18:40.905Z,29.06
2024-04-30T04:19:43.841Z,27.58
2024-04-30T04:20:46.036Z,27.98
2024-04-30T04:21:48.215Z,28.90
2024-04-30T04:22:50.464Z,26.79
2024-04-30T04:23:52.649Z,27.32
2024-04-30T04:24:54.835Z,25.74
2024-04-30T04:25:57.126Z,26.72
2024-04-30T04:26:59.559Z,25.83
2024-04-30T04:28:02.726Z,25.35
2024-04-30T04:29:04.890Z,25.16
2024-04-30T04:30:07.702Z,25.59
2024-04-30T04:31:09.898Z,25.05
2024-04-30T04:32:12.371Z,24.68
2024-04-30T04:33:14.620Z,24.80
2024-04-30T04:34:16.936Z,24.45
2024-04-30T04:35:19.138Z,24.20
2024-04-30T04:36:21.335Z,23.53
2024-04-30T04:37:25.756Z,23.08
2024-04-30T04:38:29.370Z,23.74
2024-04-30T04:39:31.525Z,23.40
2024-04-30T04:40:33.742Z,22.62
2024-04-30T04:41:35.965Z,23.21
2024-04-30T04:42:38.280Z,22.61
2024-04-30T04:43:40.933Z,22.24
2024-04-30T04:44:43.214Z,22.31
2024-04-30T04:45:45.401Z,22.32
2024-04-30T04:46:47.612Z,22.21
2024-04-30T04:47:49.914Z,21.63
2024-04-30T04:48:54.152Z,21.60
2024-04-30T04:49:57.197Z,22.00
2024-04-30T04:50:59.480Z,21.80
2024-04-30T04:52:01.869Z,22.09
2024-04-30T04:53:04.508Z,21.81
2024-04-30T04:54:06.702Z,22.11
2024-04-30T04:55:09.044Z,21.73
2024-04-30T04:56:11.337Z,21.55
2024-04-30T04:57:13.551Z,21.18
2024-04-30T04:58:15.763Z,20.74
2024-04-30T04:59:18.179Z,21.07
2024-04-30T05:00:23.953Z,21.05
2024-04-30T05:01:27.882Z,22.66
2024-04-30T05:02:30.319Z,23.40
2024-04-30T05:03:32.729Z,22.56
2024-04-30T05:04:34.968Z,22.46
2024-04-30T05:05:37.270Z,21.85
2024-04-30T05:06:42.455Z,21.36
2024-04-30T05:07:45.120Z,21.77
2024-04-30T05:08:47.401Z,22.23
2024-04-30T05:09:49.735Z,22.58
2024-04-30T05:10:52.136Z,21.38
2024-04-30T05:11:55.820Z,21.58
2024-04-30T05:12:58.128Z,21.83
2024-04-30T05:14:00.432Z,21.34
2024-04-30T05:15:02.645Z,21.28
2024-04-30T05:16:06.069Z,20.79
2024-04-30T05:17:08.506Z,20.51
2024-04-30T05:18:10.778Z,21.19
2024-04-30T05:19:13.124Z,21.56
2024-04-30T05:20:15.488Z,20.79
2024-04-30T05:21:17.667Z,21.08
2024-04-30T05:22:19.891Z,20.84
2024-04-30T05:23:22.134Z,21.40
2024-04-30T05:24:24.575Z,22.21
2024-04-30T05:25:28.037Z,22.31
2024-04-30T05:26:30.619Z,22.67
2024-04-30T05:27:32.813Z,22.52
2024-04-30T05:28:35.140Z,22.66
2024-04-30T05:29:37.851Z,22.69
2024-04-30T05:30:40.159Z,23.16
2024-04-30T05:31:42.331Z,22.51
2024-04-30T05:32:45.779Z,23.05
2024-04-30T05:33:48.353Z,23.84
2024-04-30T05:34:50.695Z,23.68
2024-04-30T05:35:53.038Z,23.31
2024-04-30T05:36:55.407Z,24.54
2024-04-30T05:37:57.588Z,24.54
2024-04-30T05:39:02.823Z,24.31
2024-04-30T05:40:06.313Z,24.39
2024-04-30T05:41:08.706Z,23.56
2024-04-30T05:42:11.009Z,23.03
2024-04-30T05:43:15.907Z,23.18
2024-04-30T05:44:18.546Z,22.75
2024-04-30T05:45:20.893Z,22.96
2024-04-30T05:46:23.073Z,22.51
2024-04-30T05:47:25.432Z,22.49
2024-04-30T05:48:27.748Z,22.61
2024-04-30T05:49:29.996Z,23.08
2024-04-30T05:50:32.183Z,22.75
2024-04-30T05:51:34.610Z,23.82
2024-04-30T05:52:37.014Z,23.02
2024-04-30T05:53:39.395Z,25.74
2024-04-30T05:54:41.654Z,25.02
2024-04-30T05:55:44.063Z,24.64
2024-04-30T05:56:46.453Z,24.17
2024-04-30T05:57:48.745Z,22.97
2024-04-30T05:58:50.878Z,23.15
2024-04-30T05:59:53.145Z,22.88
2024-04-30T06:00:55.450Z,22.77
2024-04-30T06:02:01.492Z,23.07
2024-04-30T06:03:04.387Z,22.83
2024-04-30T06:04:06.781Z,20.96
2024-04-30T06:05:09.206Z,21.31
2024-04-30T06:06:12.170Z,22.60
2024-04-30T06:07:14.423Z,23.47
2024-04-30T06:08:16.755Z,23.94
2024-04-30T06:09:19.183Z,22.98
2024-04-30T06:10:21.339Z,23.12
2024-04-30T06:11:23.604Z,22.52
2024-04-30T06:12:26.135Z,22.11
2024-04-30T06:13:28.524Z,22.33
2024-04-30T06:14:31.035Z,21.82
2024-04-30T06:15:34.745Z,22.18
2024-04-30T06:16:38.281Z,22.49
2024-04-30T06:17:40.642Z,22.69
2024-04-30T06:18:43.112Z,21.87
2024-04-30T06:19:45.376Z,23.75
2024-04-30T06:20:47.567Z,22.55
2024-04-30T06:21:49.987Z,23.06
2024-04-30T06:22:52.586Z,24.37
2024-04-30T06:23:56.058Z,23.90
2024-04-30T06:24:59.511Z,22.77
2024-04-30T06:26:01.858Z,23.01
2024-04-30T06:27:04.366Z,23.06
2024-04-30T06:28:07.214Z,22.59
2024-04-30T06:29:09.510Z,22.32
2024-04-30T06:30:11.892Z,22.42
2024-04-30T06:31:14.302Z,22.39
2024-04-30T06:32:16.541Z,22.66
2024-04-30T06:33:18.889Z,22.79
2024-04-30T06:34:24.016Z,21.77
2024-04-30T06:35:27.295Z,22.14
2024-04-30T06:36:30.076Z,23.07
2024-04-30T06:37:32.267Z,22.15
2024-04-30T06:38:35.693Z,21.80
2024-04-30T06:39:38.605Z,21.84
2024-04-30T06:40:42.498Z,21.89
2024-04-30T06:41:44.702Z,21.89
2024-04-30T06:42:46.926Z,22.12
2024-04-30T06:43:49.887Z,20.83
2024-04-30T06:44:52.178Z,20.39
2024-04-30T06:45:55.471Z,20.29
2024-04-30T06:46:57.675Z,20.33
2024-04-30T06:47:59.934Z,19.59
2024-04-30T06:49:03.807Z,21.38
2024-04-30T06:50:06.721Z,19.97
2024-04-30T06:51:09.107Z,19.89
2024-04-30T06:52:12.086Z,19.27
2024-04-30T06:53:14.355Z,19.25
2024-04-30T06:54:16.740Z,18.88
2024-04-30T06:55:19.416Z,20.80
2024-04-30T06:56:21.669Z,19.75
2024-04-30T06:57:24.069Z,19.36
2024-04-30T06:58:26.537Z,19.06
2024-04-30T06:59:29.021Z,19.23
2024-04-30T07:00:31.224Z,19.32
2024-04-30T07:01:34.256Z,19.21
2024-04-30T07:02:36.502Z,19.72
2024-04-30T07:03:38.707Z,19.51
2024-04-30T07:04:41.816Z,19.81
2024-04-30T07:05:44.710Z,20.10
2024-04-30T07:06:47.051Z,19.36
2024-04-30T07:07:49.481Z,19.67
2024-04-30T07:08:52.817Z,19.89
2024-04-30T07:09:57.801Z,20.71
2024-04-30T07:11:02.346Z,20.53
2024-04-30T07:12:06.891Z,20.19
2024-04-30T07:13:09.710Z,20.38
2024-04-30T07:14:12.109Z,20.79
2024-04-30T07:15:14.611Z,19.98
2024-04-30T07:16:18.313Z,20.23
2024-04-30T07:17:20.951Z,20.34
2024-04-30T07:18:24.279Z,20.21
2024-04-30T07:19:26.760Z,20.16
2024-04-30T07:20:30.040Z,21.37
2024-04-30T07:21:32.270Z,20.17
2024-04-30T07:22:35.889Z,20.11
2024-04-30T07:23:40.582Z,20.63
2024-04-30T07:24:43.306Z,21.18
2024-04-30T07:25:47.676Z,20.89
2024-04-30T07:26:50.169Z,20.06
2024-04-30T07:27:53.804Z,19.36
2024-04-30T07:28:57.554Z,19.17
2024-04-30T07:30:01.344Z,19.73
2024-04-30T07:31:03.888Z,19.19
2024-04-30T07:32:06.485Z,20.03
2024-04-30T07:33:08.925Z,20.07
2024-04-30T07:34:11.436Z,20.56
2024-04-30T07:35:13.920Z,20.22
2024-04-30T07:36:17.855Z,19.80
2024-04-30T07:37:20.096Z,19.48
2024-04-30T07:38:22.464Z,20.23
2024-04-30T07:39:25.415Z,23.32
2024-04-30T07:40:29.313Z,21.04
2024-04-30T07:41:31.722Z,20.09
2024-04-30T07:42:35.940Z,20.81
2024-04-30T07:43:43.607Z,20.67
2024-04-30T07:44:47.052Z,20.97
2024-04-30T07:45:49.797Z,20.35
2024-04-30T07:46:53.445Z,19.86
2024-04-30T07:47:55.835Z,20.12
2024-04-30T07:48:58.112Z,21.68
2024-04-30T07:50:02.595Z,21.72
2024-04-30T07:51:08.623Z,20.89
2024-04-30T07:52:10.886Z,20.31
2024-04-30T07:53:13.414Z,20.38
2024-04-30T07:54:16.646Z,22.30
2024-04-30T07:55:21.362Z,21.74
2024-04-30T07:56:23.765Z,21.39
2024-04-30T07:57:27.364Z,21.83
2024-04-30T07:58:29.568Z,21.64
2024-04-30T07:59:33.366Z,21.73
2024-04-30T08:00:35.729Z,21.22
2024-04-30T08:01:37.980Z,21.25
2024-04-30T08:02:42.111Z,20.50
2024-04-30T08:03:44.356Z,20.66
2024-04-30T08:04:46.673Z,21.48
2024-04-30T08:05:50.571Z,21.47
2024-04-30T08:06:55.597Z,21.82
2024-04-30T08:07:59.830Z,21.05
2024-04-30T08:09:02.500Z,23.14
2024-04-30T08:10:05.140Z,22.33
2024-04-30T08:11:09.944Z,21.44
2024-04-30T08:12:12.222Z,21.39
2024-04-30T08:13:14.611Z,21.84
2024-04-30T08:14:16.852Z,21.59
2024-04-30T08:15:19.032Z,20.87
2024-04-30T08:16:22.543Z,21.25
2024-04-30T08:17:25.037Z,21.23
2024-04-30T08:18:27.503Z,21.32
2024-04-30T08:19:30.459Z,20.84
2024-04-30T08:20:35.520Z,21.05
2024-04-30T08:21:37.938Z,20.73
2024-04-30T08:22:40.346Z,21.19
2024-04-30T08:23:44.028Z,22.07
2024-04-30T08:24:46.244Z,21.99
2024-04-30T08:25:49.645Z,21.59
2024-04-30T08:26:51.891Z,22.46
2024-04-30T08:27:54.153Z,22.42
2024-04-30T08:28:56.383Z,23.13
2024-04-30T08:29:59.265Z,22.35
2024-04-30T08:31:02.033Z,23.85
2024-04-30T08:32:07.775Z,22.23
2024-04-30T08:33:10.086Z,23.37
2024-04-30T08:34:14.182Z,23.20
2024-04-30T08:35:17.330Z,22.34
2024-04-30T08:36:25.776Z,22.59
2024-04-30T08:37:36.892Z,21.97
2024-04-30T08:38:39.886Z,22.15
2024-04-30T08:39:43.615Z,22.88
2024-04-30T08:40:47.433Z,22.01
2024-04-30T08:41:51.717Z,22.10
2024-04-30T08:42:55.768Z,22.89
2024-04-30T08:44:02.290Z,22.11
2024-04-30T08:45:05.486Z,22.72
2024-04-30T08:46:08.263Z,22.81
2024-04-30T08:47:12.174Z,24.03
2024-04-30T08:48:16.102Z,23.59
2024-04-30T08:49:29.512Z,23.37
2024-04-30T08:50:42.785Z,23.15
2024-04-30T08:51:45.948Z,23.47
2024-04-30T08:52:49.121Z,22.63
2024-04-30T08:53:52.659Z,23.54
2024-04-30T08:54:59.659Z,23.31
2024-04-30T08:56:02.055Z,23.33
2024-04-30T08:57:06.010Z,23.41
2024-04-30T08:58:09.769Z,23.60
2024-04-30T08:59:12.103Z,23.67
2024-04-30T09:00:14.588Z,23.51
2024-04-30T09:01:18.167Z,23.66
2024-04-30T09:02:22.967Z,23.73
2024-04-30T09:03:26.826Z,23.78
2024-04-30T09:04:30.285Z,23.78
2024-04-30T09:05:36.039Z,24.00
2024-04-30T09:06:43.022Z,23.77
2024-04-30T09:07:48.399Z,25.35
2024-04-30T09:08:50.687Z,24.41
2024-04-30T09:09:59.990Z,24.69
2024-04-30T09:11:03.101Z,24.35
2024-04-30T09:12:07.642Z,24.67
2024-04-30T09:13:10.064Z,24.16
2024-04-30T09:14:12.616Z,25.15
2024-04-30T09:15:21.191Z,24.79
2024-04-30T09:16:25.134Z,25.66
2024-04-30T09:17:28.977Z,26.08
2024-04-30T09:18:33.711Z,25.93
2024-04-30T09:19:36.047Z,26.06
2024-04-30T09:20:47.669Z,25.93
2024-04-30T09:21:51.297Z,27.42
2024-04-30T09:22:54.792Z,27.80
2024-04-30T09:24:09.730Z,26.28
2024-04-30T09:25:13.975Z,26.77
2024-04-30T09:26:16.230Z,27.07
2024-04-30T09:27:18.548Z,26.36
2024-04-30T09:28:23.825Z,27.08
2024-04-30T09:29:38.234Z,26.40
2024-04-30T09:30:44.171Z,26.14
2024-04-30T09:31:48.088Z,26.84
2024-04-30T09:32:51.820Z,27.45
2024-04-30T09:33:56.094Z,27.49
2024-04-30T09:34:58.486Z,26.22
2024-04-30T09:36:10.372Z,26.71
2024-04-30T09:37:24.693Z,27.06
2024-04-30T09:38:28.870Z,27.50
2024-04-30T09:39:34.621Z,26.30
2024-04-30T09:40:37.428Z,27.56
2024-04-30T09:41:40.109Z,26.90
2024-04-30T09:42:42.910Z,26.67
2024-04-30T09:43:48.246Z,26.77
2024-04-30T09:44:55.169Z,26.76
2024-04-30T09:45:59.005Z,26.22
2024-04-30T09:47:03.314Z,26.21
2024-04-30T09:48:09.824Z,26.78
2024-04-30T09:49:15.315Z,27.04
2024-04-30T09:50:18.850Z,27.62
2024-04-30T09:51:26.522Z,27.44
2024-04-30T09:52:30.274Z,27.18
2024-04-30T09:53:33.762Z,26.74
2024-04-30T09:54:38.353Z,27.01
2024-04-30T09:55:44.017Z,26.71
2024-04-30T09:56:51.675Z,27.83
2024-04-30T09:57:57.379Z,27.66
2024-04-30T09:58:59.889Z,28.77
2024-04-30T10:00:03.040Z,28.60
2024-04-30T10:01:19.421Z,27.09
2024-04-30T10:02:23.289Z,27.96
2024-04-30T10:03:27.988Z,27.02
2024-04-30T10:04:31.314Z,27.38
2024-04-30T10:05:38.729Z,27.06
2024-04-30T10:06:45.048Z,27.73
2024-04-30T10:08:06.651Z,27.42
2024-04-30T10:09:08.995Z,26.82
2024-04-30T10:10:11.280Z,27.20
2024-04-30T10:11:14.315Z,27.30
2024-04-30T10:12:29.524Z,27.65
2024-04-30T10:13:56.656Z,27.31
2024-04-30T10:15:12.848Z,27.54
2024-04-30T10:16:18.687Z,27.10
2024-04-30T10:17:21.324Z,27.34
2024-04-30T10:18:26.032Z,27.28
2024-04-30T10:19:29.520Z,27.47
2024-04-30T10:20:32.802Z,27.36
2024-04-30T10:21:37.696Z,27.30
2024-04-30T10:22:44.244Z,28.09
2024-04-30T10:23:47.923Z,28.06
2024-04-30T10:24:50.178Z,27.36
2024-04-30T10:26:04.666Z,27.19
2024-04-30T10:27:25.491Z,27.58
2024-04-30T10:28:28.027Z,27.45
2024-04-30T10:29:31.255Z,26.84
2024-04-30T10:30:33.944Z,27.21
2024-04-30T10:31:37.953Z,27.86
2024-04-30T10:32:46.872Z,26.97
2024-04-30T10:33:51.567Z,27.02
2024-04-30T10:34:55.402Z,28.17
2024-04-30T10:36:00.220Z,27.72
2024-04-30T10:37:05.100Z,27.66
2024-04-30T10:38:08.032Z,27.84
2024-04-30T10:39:12.218Z,28.58
2024-04-30T10:40:17.525Z,27.82
2024-04-30T10:41:21.019Z,27.48
2024-04-30T10:42:35.363Z,28.08
2024-04-30T10:43:38.532Z,27.77
2024-04-30T10:44:42.648Z,27.87
2024-04-30T10:45:44.848Z,27.79
2024-04-30T10:46:47.236Z,28.16
2024-04-30T10:47:51.021Z,27.72
2024-04-30T10:48:55.113Z,27.52
2024-04-30T10:50:16.581Z,28.20
2024-04-30T10:51:24.417Z,27.65
2024-04-30T10:52:27.328Z,27.48
2024-04-30T10:53:33.694Z,28.09
2024-04-30T10:54:36.481Z,27.97
2024-04-30T10:55:43.196Z,28.42
2024-04-30T10:56:46.520Z,29.04
2024-04-30T10:57:49.945Z,28.35
2024-04-30T10:58:59.497Z,28.75
2024-04-30T11:00:02.925Z,29.15
2024-04-30T11:01:05.670Z,28.78
2024-04-30T11:02:09.284Z,28.22
2024-04-30T11:03:15.482Z,28.35
2024-04-30T11:04:17.980Z,28.68
2024-04-30T11:05:20.666Z,27.92
2024-04-30T11:06:23.189Z,27.86
2024-04-30T11:07:27.999Z,27.77
2024-04-30T11:08:30.229Z,27.83
2024-04-30T11:09:40.787Z,28.94
2024-04-30T11:10:47.033Z,28.66
2024-04-30T11:11:51.289Z,28.06
2024-04-30T11:13:04.601Z,28.71
2024-04-30T11:14:06.956Z,28.62
2024-04-30T11:15:11.259Z,27.77
2024-04-30T11:16:16.222Z,27.91
2024-04-30T11:17:27.640Z,28.78
2024-04-30T11:18:30.967Z,28.57
2024-04-30T11:19:33.204Z,28.45
2024-04-30T11:20:36.938Z,28.66
2024-04-30T11:21:40.351Z,28.96
2024-04-30T11:22:43.984Z,28.97
2024-04-30T11:23:46.329Z,29.36
2024-04-30T11:24:48.587Z,29.64
2024-04-30T11:25:50.860Z,28.53
2024-04-30T11:26:53.148Z,28.55
2024-04-30T11:27:55.583Z,28.90
2024-04-30T11:29:09.573Z,28.65
2024-04-30T11:30:22.606Z,28.87
2024-04-30T11:31:29.752Z,28.60
2024-04-30T11:32:33.676Z,28.60
2024-04-30T11:33:36.685Z,28.67
2024-04-30T11:34:40.392Z,28.61
2024-04-30T11:35:44.246Z,29.00
2024-04-30T11:36:49.730Z,28.91
2024-04-30T11:37:51.901Z,28.90
2024-04-30T11:38:58.326Z,28.81
2024-04-30T11:40:01.014Z,28.64
2024-04-30T11:41:08.537Z,28.84
2024-04-30T11:42:18.399Z,29.11
2024-04-30T11:43:26.935Z,29.45
2024-04-30T11:44:30.055Z,29.49
2024-04-30T11:45:36.878Z,29.73
2024-04-30T11:46:39.247Z,29.88
2024-04-30T11:47:41.580Z,29.62
2024-04-30T11:48:45.160Z,29.53
2024-04-30T11:49:48.006Z,29.95
2024-04-30T11:50:55.620Z,30.08
2024-04-30T11:52:02.681Z,30.17
2024-04-30T11:53:09.396Z,31.14
2024-04-30T11:54:14.612Z,30.09
2024-04-30T11:55:20.752Z,30.52
2024-04-30T11:56:27.309Z,30.20
2024-04-30T11:57:35.949Z,30.43
2024-04-30T11:58:39.182Z,30.44
2024-04-30T11:59:42.663Z,30.40
2024-04-30T12:00:46.718Z,30.21
2024-04-30T12:01:50.150Z,31.17
2024-04-30T12:02:54.004Z,30.54
2024-04-30T12:03:56.484Z,30.57
2024-04-30T12:05:00.581Z,31.52
2024-04-30T12:06:08.739Z,30.15
2024-04-30T12:07:11.376Z,30.65
2024-04-30T12:08:14.627Z,30.57
2024-04-30T12:09:22.446Z,30.13
2024-04-30T12:10:26.567Z,30.18
2024-04-30T12:11:28.964Z,30.10
2024-04-30T12:12:31.237Z,30.25
2024-04-30T12:13:36.180Z,30.43
2024-04-30T12:14:40.603Z,30.63
2024-04-30T12:15:43.156Z,30.46
2024-04-30T12:16:47.996Z,30.36
2024-04-30T12:17:54.350Z,30.38
2024-04-30T12:19:00.712Z,30.35
2024-04-30T12:20:07.807Z,30.33
2024-04-30T12:21:11.358Z,31.35
2024-04-30T12:22:17.781Z,31.13
2024-04-30T12:23:22.104Z,31.02
2024-04-30T12:24:26.447Z,31.15
2024-04-30T12:25:31.727Z,30.94
2024-04-30T12:26:37.714Z,30.35
2024-04-30T12:27:41.077Z,30.36
2024-04-30T12:28:43.930Z,30.62
2024-04-30T12:29:48.728Z,30.50
2024-04-30T12:30:52.506Z,30.54
2024-04-30T12:31:55.033Z,30.88
2024-04-30T12:32:58.921Z,31.67
2024-04-30T12:34:02.989Z,30.50
2024-04-30T12:35:07.660Z,30.43
2024-04-30T12:36:10.973Z,30.59
2024-04-30T12:37:15.268Z,30.56
2024-04-30T12:38:23.801Z,30.49
2024-04-30T12:39:26.098Z,30.28
2024-04-30T12:40:28.944Z,30.56
2024-04-30T12:41:39.272Z,30.03
2024-04-30T12:42:46.873Z,30.47
2024-04-30T12:43:50.375Z,30.85
2024-04-30T12:44:53.294Z,30.45
2024-04-30T12:45:55.728Z,30.39
2024-04-30T12:46:59.159Z,30.27
2024-04-30T12:48:02.110Z,30.66
2024-04-30T12:49:05.903Z,30.59
2024-04-30T12:50:08.914Z,31.30
2024-04-30T12:51:15.574Z,30.51
2024-04-30T12:52:19.156Z,30.98
2024-04-30T12:53:22.908Z,30.81
2024-04-30T12:54:45.626Z,31.24
2024-04-30T12:55:50.415Z,31.00
2024-04-30T12:56:55.503Z,31.40
2024-04-30T12:58:00.554Z,31.78
2024-04-30T12:59:06.496Z,31.27
2024-04-30T13:00:09.099Z,30.97
2024-04-30T13:01:16.956Z,30.99
2024-04-30T13:02:21.551Z,31.50
2024-04-30T13:03:24.894Z,31.47
2024-04-30T13:04:27.360Z,31.38
2024-04-30T13:05:31.097Z,31.44
2024-04-30T13:06:39.205Z,31.21
2024-04-30T13:07:41.575Z,31.17
2024-04-30T13:08:43.922Z,31.51
2024-04-30T13:09:47.257Z,31.38
2024-04-30T13:10:50.065Z,31.52
2024-04-30T13:11:55.154Z,31.32
2024-04-30T13:12:57.531Z,31.56
2024-04-30T13:13:59.865Z,32.04
2024-04-30T13:15:03.391Z,31.83
2024-04-30T13:16:08.025Z,31.98
2024-04-30T13:17:13.366Z,31.65
2024-04-30T13:18:15.656Z,31.54
2024-04-30T13:19:18.166Z,31.51
2024-04-30T13:20:20.685Z,31.48
2024-04-30T13:21:23.100Z,31.75
2024-04-30T13:22:26.329Z,31.91
2024-04-30T13:23:50.429Z,31.69
2024-04-30T13:24:52.864Z,31.84
2024-04-30T13:25:55.165Z,32.23
2024-04-30T13:26:57.331Z,32.01
2024-04-30T13:28:02.108Z,31.70
2024-04-30T13:29:06.038Z,31.92
2024-04-30T13:30:13.356Z,31.88
2024-04-30T13:31:17.411Z,32.92
2024-04-30T13:32:21.079Z,31.81
2024-04-30T13:33:24.530Z,31.29
2024-04-30T13:34:28.605Z,31.50
2024-04-30T13:35:32.049Z,31.68
2024-04-30T13:36:34.567Z,32.12
2024-04-30T13:37:39.753Z,31.93
2024-04-30T13:38:42.179Z,31.97
2024-04-30T13:39:45.854Z,31.65
2024-04-30T13:40:49.221Z,32.13
2024-04-30T13:41:53.112Z,32.01
2024-04-30T13:42:55.499Z,31.99
2024-04-30T13:44:00.640Z,32.37
2024-04-30T13:45:02.906Z,32.11
2024-04-30T13:46:05.894Z,32.74
2024-04-30T13:47:09.095Z,32.66
2024-04-30T13:48:11.625Z,33.03
2024-04-30T13:49:14.143Z,32.55
2024-04-30T13:50:18.192Z,32.87
2024-04-30T13:51:26.165Z,32.55
2024-04-30T13:52:28.535Z,32.87
2024-04-30T13:53:30.718Z,32.53